createdAt,value
2018-07-05T00:02:56.557Z,100680.45
2018-07-05T00:08:06.681Z,100689.55
2018-07-05T00:13:16.778Z,100686.27
2018-07-05T00:18:26.856Z,100684.98
2018-07-05T00:23:36.992Z,100685.00
2018-07-05T00:28:47.128Z,100695.41
2018-07-05T00:33:57.216Z,100677.58
2018-07-05T00:39:07.411Z,100683.47
2018-07-05T00:44:17.602Z,100687.95
2018-07-05T00:49:27.750Z,100691.45
2018-07-05T00:54:37.866Z,100689.33
2018-07-05T00:59:47.979Z,100688.01
2018-07-05T01:04:58.111Z,100681.34
2018-07-05T01:10:08.276Z,100677.33
2018-07-05T01:15:18.303Z,100680.97
2018-07-05T01:20:28.400Z,100682.55
2018-07-05T01:25:38.443Z,100678.64
2018-07-05T01:30:48.476Z,100677.40
2018-07-05T01:35:58.499Z,100675.45
2018-07-05T01:41:08.626Z,100673.73
2018-07-05T01:46:18.724Z,100687.03
2018-07-05T01:51:28.815Z,100672.94
2018-07-05T01:56:38.954Z,100672.81
2018-07-05T02:01:49.164Z,100673.88
2018-07-05T02:06:59.282Z,100672.55
2018-07-05T02:12:09.389Z,100670.06
2018-07-05T02:17:19.644Z,100686.02
2018-07-05T02:22:29.792Z,100678.77
2018-07-05T02:27:39.880Z,100681.66
2018-07-05T02:32:50.053Z,100672.20
2018-07-05T02:38:05.922Z,100675.91
2018-07-05T02:43:16.061Z,100669.62
2018-07-05T02:48:26.253Z,100672.53
2018-07-05T02:53:36.355Z,100669.12
2018-07-05T02:58:46.488Z,100670.75
2018-07-05T03:03:56.632Z,100668.96
2018-07-05T03:09:06.773Z,100663.44
2018-07-05T03:14:16.858Z,100662.06
2018-07-05T03:19:27.030Z,100666.98
2018-07-05T03:24:37.138Z,100673.03
2018-07-05T03:29:47.246Z,100672.00
2018-07-05T03:34:57.390Z,100674.70
2018-07-05T03:40:07.517Z,100673.38
2018-07-05T03:45:17.813Z,100674.56
2018-07-05T03:50:27.777Z,100671.72
2018-07-05T03:55:37.847Z,100678.39
2018-07-05T04:00:47.929Z,100670.73
2018-07-05T04:05:58.060Z,100677.58
2018-07-05T04:11:08.227Z,100665.98
2018-07-05T04:16:18.347Z,100670.75
2018-07-05T04:21:28.378Z,100677.14
2018-07-05T04:26:38.345Z,100678.84
2018-07-05T04:31:48.534Z,100673.97
2018-07-05T04:36:58.479Z,100678.42
2018-07-05T04:42:08.896Z,100677.61
2018-07-05T04:47:19.040Z,100674.31
2018-07-05T04:52:29.206Z,100660.39
2018-07-05T04:57:39.280Z,100674.36
2018-07-05T05:02:49.469Z,100684.41
2018-07-05T05:07:59.740Z,100681.33
2018-07-05T05:13:09.885Z,100687.36
2018-07-05T05:18:20.077Z,100682.52
2018-07-05T05:23:30.200Z,100683.16
2018-07-05T05:28:40.296Z,100684.91
2018-07-05T05:33:50.335Z,100688.63
2018-07-05T05:39:00.459Z,100685.19
2018-07-05T05:44:10.649Z,100677.37
2018-07-05T05:49:20.732Z,100683.56
2018-07-05T05:54:30.787Z,100680.77
2018-07-05T05:59:40.993Z,100687.27
2018-07-05T06:04:51.147Z,100684.64
2018-07-05T06:10:01.191Z,100686.77
2018-07-05T06:15:11.405Z,100686.33
2018-07-05T06:20:21.552Z,100681.20
2018-07-05T06:25:31.763Z,100688.71
2018-07-05T06:30:41.754Z,100697.00
2018-07-05T06:35:51.919Z,100689.13
2018-07-05T06:41:01.993Z,100685.05
2018-07-05T06:46:12.333Z,100678.56
2018-07-05T06:51:22.599Z,100678.89
2018-07-05T06:56:32.693Z,100677.98
2018-07-05T07:01:42.801Z,100680.86
2018-07-05T07:06:52.943Z,100681.95
2018-07-05T07:12:03.039Z,100688.41
2018-07-05T07:17:13.243Z,100690.86
2018-07-05T07:22:23.450Z,100693.77
2018-07-05T07:27:33.717Z,100692.41
2018-07-05T07:32:43.808Z,100695.76
2018-07-05T07:37:53.791Z,100699.22
2018-07-05T07:42:45.230Z,100692.45
2018-07-05T07:47:36.726Z,100692.67
2018-07-05T07:52:28.290Z,100694.84
2018-07-05T07:57:19.860Z,100687.16
2018-07-05T08:02:11.344Z,100682.88
2018-07-05T08:07:02.898Z,100682.58
2018-07-05T08:11:54.453Z,100690.99
2018-07-05T08:16:46.039Z,100692.45
2018-07-05T08:21:37.551Z,100686.61
2018-07-05T08:26:29.125Z,100674.90
2018-07-05T08:31:20.623Z,100683.75
2018-07-05T08:36:12.090Z,100674.06
2018-07-05T08:41:03.590Z,100674.11
2018-07-05T08:45:55.114Z,100678.00
2018-07-05T08:50:46.628Z,100673.36
2018-07-05T08:55:38.259Z,100675.45
2018-07-05T09:00:29.772Z,100663.83
2018-07-05T09:05:21.356Z,100661.53
2018-07-05T09:10:12.917Z,100651.73
2018-07-05T09:15:04.427Z,100662.23
2018-07-05T09:19:55.937Z,100658.19
2018-07-05T09:24:47.460Z,100652.03
2018-07-05T09:29:38.931Z,100649.73
2018-07-05T09:34:30.570Z,100649.04
2018-07-05T09:39:21.992Z,100643.17
2018-07-05T09:44:13.598Z,100644.48
2018-07-05T09:49:05.056Z,100635.09
2018-07-05T09:53:56.523Z,100634.00
2018-07-05T09:58:48.133Z,100627.16
2018-07-05T10:03:39.703Z,100630.68
2018-07-05T10:08:31.139Z,100632.04
2018-07-05T10:13:22.749Z,100630.09
2018-07-05T10:18:14.266Z,100620.39
2018-07-05T10:23:05.775Z,100606.94
2018-07-05T10:27:57.297Z,100608.41
2018-07-05T10:33:07.419Z,100601.08
2018-07-05T10:38:00.182Z,100595.34
2018-07-05T10:43:10.181Z,100599.09
2018-07-05T10:48:20.298Z,100595.28
2018-07-05T10:53:30.454Z,100591.09
2018-07-05T10:58:40.613Z,100581.97
2018-07-05T11:03:50.806Z,100580.44
2018-07-05T11:09:00.830Z,100581.12
2018-07-05T11:14:10.959Z,100575.18
2018-07-05T11:19:21.209Z,100569.79
2018-07-05T11:24:31.259Z,100556.83
2018-07-05T11:29:41.422Z,100554.48
2018-07-05T11:34:51.677Z,100541.70
2018-07-05T11:40:01.718Z,100541.95
2018-07-05T11:45:11.896Z,100535.43
2018-07-05T11:50:21.995Z,100527.09
2018-07-05T11:55:31.959Z,100530.48
2018-07-05T12:00:42.056Z,100517.83
2018-07-05T12:05:52.343Z,100518.52
2018-07-05T12:11:02.529Z,100522.08
2018-07-05T12:16:12.651Z,100513.45
2018-07-05T12:21:22.799Z,100508.94
2018-07-05T12:26:33.048Z,100500.97
2018-07-05T12:31:43.119Z,100498.46
2018-07-05T12:36:53.172Z,100494.40
2018-07-05T12:42:03.308Z,100498.28
2018-07-05T12:47:13.467Z,100484.76
2018-07-05T12:52:23.670Z,100493.34
2018-07-05T12:57:33.910Z,100494.09
2018-07-05T13:02:45.112Z,100486.83
2018-07-05T13:07:55.159Z,100492.80
2018-07-05T13:13:05.195Z,100480.91
2018-07-05T13:18:15.352Z,100483.34
2018-07-05T13:23:25.450Z,100480.00
2018-07-05T13:28:35.978Z,100485.23
2018-07-05T13:33:46.083Z,100488.27
2018-07-05T13:38:56.257Z,100486.35
2018-07-05T13:44:06.389Z,100489.55
2018-07-05T13:49:16.518Z,100488.20
2018-07-05T13:54:26.679Z,100484.33
2018-07-05T13:59:36.781Z,100489.02
2018-07-05T14:04:47.025Z,100492.27
2018-07-05T14:09:57.246Z,100489.24
2018-07-05T14:15:07.361Z,100501.57
2018-07-05T14:20:17.385Z,100488.92
2018-07-05T14:25:27.562Z,100483.61
2018-07-05T14:30:37.715Z,100476.01
2018-07-05T14:35:47.851Z,100481.56
2018-07-05T14:40:58.049Z,100472.64
2018-07-05T14:46:08.175Z,100475.38
2018-07-05T14:56:41.461Z,100473.41
2018-07-05T15:01:51.388Z,100474.31
2018-07-05T15:07:01.459Z,100469.81
2018-07-05T15:12:11.563Z,100475.38
2018-07-05T15:17:21.715Z,100474.56
2018-07-05T15:22:31.752Z,100475.39
2018-07-05T15:27:41.734Z,100469.85
2018-07-05T15:32:51.904Z,100466.59
2018-07-05T15:38:01.995Z,100472.06
2018-07-05T15:43:12.150Z,100460.73
2018-07-05T15:48:22.350Z,100467.00
2018-07-05T15:53:32.402Z,100459.70
2018-07-05T15:58:42.495Z,100461.09
2018-07-05T16:03:52.608Z,100458.54
2018-07-05T16:09:02.793Z,100450.80
2018-07-05T16:14:12.790Z,100454.30
2018-07-05T16:19:23.044Z,100444.67
2018-07-05T16:24:33.324Z,100448.92
2018-07-05T16:29:43.320Z,100442.48
2018-07-05T16:34:53.457Z,100451.98
2018-07-05T16:40:03.923Z,100449.34
2018-07-05T16:45:14.004Z,100456.78
2018-07-05T16:50:24.078Z,100452.75
2018-07-05T16:55:34.249Z,100456.83
2018-07-05T17:00:44.343Z,100453.78
2018-07-05T17:05:54.428Z,100458.80
2018-07-05T17:11:04.656Z,100460.05
2018-07-05T17:16:14.667Z,100465.41
2018-07-05T17:21:24.753Z,100474.84
2018-07-05T17:26:34.913Z,100477.75
2018-07-05T17:31:45.308Z,100480.66
2018-07-05T17:36:55.436Z,100486.27
2018-07-05T17:42:05.566Z,100485.15
2018-07-05T17:47:15.718Z,100488.28
2018-07-05T17:52:25.790Z,100494.44
2018-07-05T17:57:36.055Z,100486.19
2018-07-05T18:02:46.230Z,100494.86
2018-07-05T18:07:56.304Z,100498.69
2018-07-05T18:13:06.436Z,100499.21
2018-07-05T18:18:16.676Z,100508.13
2018-07-05T18:23:26.606Z,100520.73
2018-07-05T18:28:36.695Z,100521.82
2018-07-05T18:33:46.885Z,100525.20
2018-07-05T18:38:57.017Z,100532.28
2018-07-05T18:44:07.235Z,100539.56
2018-07-05T18:49:17.380Z,100547.77
2018-07-05T18:54:27.312Z,100561.84
2018-07-05T18:59:37.479Z,100571.09
2018-07-05T19:04:47.638Z,100567.09
2018-07-05T19:09:57.673Z,100582.45
2018-07-05T19:15:07.635Z,100587.88
2018-07-05T19:20:17.927Z,100596.53
2018-07-05T19:25:27.905Z,100608.66
2018-07-05T19:30:38.063Z,100620.09
2018-07-05T19:35:48.136Z,100629.95
2018-07-05T19:40:58.368Z,100632.63
2018-07-05T19:46:08.407Z,100633.13
2018-07-05T19:51:18.504Z,100638.56
2018-07-05T19:56:28.645Z,100642.97
2018-07-05T20:01:38.734Z,100643.30
2018-07-05T20:06:48.895Z,100651.83
2018-07-05T20:12:04.905Z,100659.44
2018-07-05T20:17:15.136Z,100658.52
2018-07-05T20:22:25.084Z,100662.66
2018-07-05T20:27:35.193Z,100665.43
2018-07-05T20:32:45.444Z,100667.70
2018-07-05T20:37:55.551Z,100671.70
2018-07-05T20:43:05.636Z,100676.28
2018-07-05T20:48:15.711Z,100683.73
2018-07-05T20:53:25.782Z,100693.02
2018-07-05T20:58:36.024Z,100695.54
2018-07-05T21:03:46.136Z,100708.21
2018-07-05T21:08:56.316Z,100712.79
2018-07-05T21:14:06.444Z,100722.92
2018-07-05T21:19:16.583Z,100731.16
2018-07-05T21:24:26.615Z,100738.68
2018-07-05T21:29:36.758Z,100748.33
2018-07-05T21:34:46.917Z,100752.05
2018-07-05T21:39:56.927Z,100768.53
2018-07-05T21:45:06.975Z,100770.52
2018-07-05T21:50:16.908Z,100779.41
2018-07-05T21:55:26.950Z,100785.55
2018-07-05T22:00:36.962Z,100787.19
2018-07-05T22:05:47.070Z,100796.08
2018-07-05T22:10:57.107Z,100799.93
2018-07-05T22:16:07.156Z,100807.75
2018-07-05T22:21:19.094Z,100802.34
2018-07-05T22:26:31.773Z,100802.44
2018-07-05T22:31:41.909Z,100807.05
2018-07-05T22:36:52.154Z,100813.53
2018-07-05T22:42:03.032Z,100821.49
2018-07-05T22:47:13.225Z,100822.14
2018-07-05T22:52:23.302Z,100824.41
2018-07-05T22:57:33.452Z,100823.92
2018-07-05T23:02:43.508Z,100821.16
2018-07-05T23:07:53.620Z,100824.62
2018-07-05T23:13:03.682Z,100832.59
2018-07-05T23:18:13.781Z,100833.52
2018-07-05T23:23:23.919Z,100837.37
2018-07-05T23:28:34.000Z,100834.04
2018-07-05T23:33:44.235Z,100834.98
2018-07-05T23:38:54.303Z,100849.59
2018-07-05T23:44:04.397Z,100853.17
2018-07-05T23:49:14.559Z,100860.70
2018-07-05T23:54:24.640Z,100865.40
2018-07-05T23:59:34.837Z,100870.91
